createdAt,value
2022-08-24T00:01:12.481Z,11.25
2022-08-24T00:04:01.450Z,11.35
2022-08-24T00:06:38.062Z,10.65
2022-08-24T00:09:25.470Z,10.85
2022-08-24T00:12:20.474Z,10.85
2022-08-24T00:15:07.467Z,11.65
2022-08-24T00:17:48.460Z,10.27
2022-08-24T00:20:45.226Z,10.68
2022-08-24T00:23:32.479Z,10.68
2022-08-24T00:26:06.592Z,10.68
2022-08-24T00:28:53.469Z,10.70
2022-08-24T00:31:34.524Z,10.63
2022-08-24T00:34:29.480Z,12.05
2022-08-24T00:37:16.472Z,11.07
2022-08-24T00:39:50.599Z,10.18
2022-08-24T00:42:37.469Z,11.02
2022-08-24T00:45:20.624Z,11.18
2022-08-24T00:48:05.502Z,11.38
2022-08-24T00:50:55.570Z,11.18
2022-08-24T00:53:42.521Z,11.93
2022-08-24T00:56:53.574Z,11.25
2022-08-24T00:59:39.471Z,12.43
2022-08-24T01:05:27.493Z,12.25
2022-08-24T01:08:09.657Z,11.85
2022-08-24T01:10:53.488Z,10.43
2022-08-24T01:13:35.564Z,11.43
2022-08-24T01:16:44.537Z,11.98
2022-08-24T01:19:44.573Z,11.63
2022-08-24T01:22:43.504Z,12.02
2022-08-24T01:25:24.513Z,10.25
2022-08-24T01:28:27.153Z,10.00
2022-08-24T01:31:14.559Z,10.63
2022-08-24T01:33:55.491Z,9.50
2022-08-24T01:37:02.528Z,10.55
2022-08-24T01:39:59.208Z,9.90
2022-08-24T01:42:46.504Z,11.07
2022-08-24T01:45:20.658Z,11.10
2022-08-24T01:48:09.504Z,11.73
2022-08-24T01:50:43.633Z,10.98
2022-08-24T01:53:31.512Z,11.18
2022-08-24T01:56:11.532Z,12.13
2022-08-24T01:59:05.527Z,12.25
2022-08-24T02:04:32.597Z,12.73
2022-08-24T02:07:19.512Z,13.18
2022-08-24T02:09:53.960Z,12.73
2022-08-24T02:12:45.519Z,12.18
2022-08-24T02:15:27.495Z,13.60
2022-08-24T02:18:07.554Z,12.45
2022-08-24T02:20:55.649Z,12.05
2022-08-24T02:23:36.534Z,13.27
2022-08-24T02:26:17.683Z,13.35
2022-08-24T02:28:57.548Z,12.43
2022-08-24T02:31:40.634Z,12.38
2022-08-24T02:34:20.536Z,12.88
2022-08-24T02:37:01.003Z,11.85
2022-08-24T02:39:40.531Z,12.90
2022-08-24T02:42:20.641Z,11.98
2022-08-24T02:45:01.555Z,13.10
2022-08-24T02:47:42.600Z,11.73
2022-08-24T02:50:25.579Z,13.50
2022-08-24T02:53:06.950Z,13.50
2022-08-24T02:55:47.544Z,12.90
2022-08-24T02:58:35.544Z,13.35
2022-08-24T03:01:15.931Z,12.73
2022-08-24T03:04:05.555Z,12.63
2022-08-24T03:06:39.691Z,13.07
2022-08-24T03:09:28.876Z,13.00
2022-08-24T03:12:22.520Z,12.30
2022-08-24T03:15:12.532Z,12.93
2022-08-24T03:17:46.633Z,12.07
2022-08-24T03:20:33.551Z,13.70
2022-08-24T03:23:07.873Z,12.65
2022-08-24T03:25:54.574Z,11.88
2022-08-24T03:28:29.711Z,12.82
2022-08-24T03:31:16.661Z,12.90
2022-08-24T03:33:50.640Z,12.63
2022-08-24T03:36:37.564Z,11.98
2022-08-24T03:39:10.646Z,12.98
2022-08-24T03:41:57.568Z,13.60
2022-08-24T03:44:31.643Z,12.65
2022-08-24T03:47:19.576Z,14.43
2022-08-24T03:49:53.668Z,13.38
2022-08-24T03:52:42.557Z,12.80
2022-08-24T03:55:17.651Z,11.80
2022-08-24T03:58:05.560Z,13.00
2022-08-24T04:00:48.602Z,12.93
2022-08-24T04:03:35.598Z,11.95
2022-08-24T04:06:16.665Z,11.95
2022-08-24T04:09:04.581Z,11.35
2022-08-24T04:11:41.326Z,11.55
2022-08-24T04:14:28.604Z,12.20
2022-08-24T04:17:03.058Z,11.75
2022-08-24T04:20:03.582Z,11.35
2022-08-24T04:22:38.644Z,11.18
2022-08-24T04:25:25.594Z,11.40
2022-08-24T04:27:58.693Z,11.93
2022-08-24T04:30:50.610Z,12.00
2022-08-24T04:33:25.703Z,22.42
2022-08-24T04:36:16.582Z,16.42
2022-08-24T04:38:50.676Z,14.10
2022-08-24T04:41:37.590Z,13.60
2022-08-24T04:44:19.577Z,13.13
2022-08-24T04:47:07.607Z,14.23
2022-08-24T04:49:41.689Z,13.70
2022-08-24T04:52:28.583Z,14.32
2022-08-24T04:55:02.686Z,13.00
2022-08-24T04:57:49.592Z,13.30
2022-08-24T05:00:23.672Z,12.20
2022-08-24T05:03:10.581Z,12.77
2022-08-24T05:06:02.626Z,12.30
2022-08-24T05:08:36.163Z,14.60
2022-08-24T05:11:23.629Z,13.10
2022-08-24T05:13:57.979Z,13.75
2022-08-24T05:16:45.699Z,14.23
2022-08-24T05:19:27.234Z,12.90
2022-08-24T05:22:14.618Z,11.80
2022-08-24T05:24:48.272Z,10.88
2022-08-24T05:27:35.612Z,11.27
2022-08-24T05:30:11.044Z,10.27
2022-08-24T05:32:57.620Z,8.63
2022-08-24T05:35:38.343Z,8.88
2022-08-24T05:38:18.608Z,8.52
2022-08-24T05:40:58.679Z,9.20
2022-08-24T05:43:39.597Z,7.47
2022-08-24T05:46:20.754Z,7.25
2022-08-24T05:49:01.611Z,6.85
2022-08-24T05:51:42.794Z,6.68
2022-08-24T05:54:23.626Z,6.55
2022-08-24T05:57:17.623Z,6.88
2022-08-24T06:00:04.621Z,6.97
2022-08-24T06:02:38.797Z,6.43
2022-08-24T06:05:25.632Z,7.13
2022-08-24T06:08:01.088Z,7.93
2022-08-24T06:10:54.655Z,7.10
2022-08-24T06:13:28.683Z,7.93
2022-08-24T06:16:22.222Z,8.85
2022-08-24T06:18:57.740Z,7.30
2022-08-24T06:21:44.612Z,7.20
2022-08-24T06:24:18.873Z,7.75
2022-08-24T06:27:24.624Z,7.15
2022-08-24T06:30:16.656Z,7.22
2022-08-24T06:33:15.625Z,7.30
2022-08-24T06:36:02.622Z,7.68
2022-08-24T06:38:37.981Z,7.43
2022-08-24T06:41:24.653Z,8.13
2022-08-24T06:44:05.644Z,7.13
2022-08-24T06:46:59.693Z,8.18
2022-08-24T06:49:46.667Z,6.82
2022-08-24T06:52:20.735Z,7.95
2022-08-24T06:55:07.671Z,7.85
2022-08-24T06:57:52.346Z,6.63
2022-08-24T07:00:46.634Z,6.30
2022-08-24T07:03:34.651Z,6.78
2022-08-24T07:06:16.651Z,6.65
2022-08-24T07:09:10.708Z,6.10
2022-08-24T07:12:05.659Z,5.93
2022-08-24T07:14:54.987Z,5.70
2022-08-24T07:17:35.685Z,5.53
2022-08-24T07:20:29.718Z,6.60
2022-08-24T07:23:34.634Z,5.60
2022-08-24T07:26:31.660Z,5.43
2022-08-24T07:29:30.586Z,5.72
2022-08-24T07:32:18.895Z,5.78
2022-08-24T07:34:52.982Z,5.70
2022-08-24T07:37:41.634Z,6.25
2022-08-24T07:40:22.729Z,5.10
2022-08-24T07:43:16.677Z,4.80
2022-08-24T07:46:03.741Z,4.65
2022-08-24T07:48:37.878Z,4.65
2022-08-24T07:51:26.679Z,6.03
2022-08-24T07:54:00.835Z,4.65
2022-08-24T07:56:49.672Z,5.60
2022-08-24T07:59:30.733Z,5.00
2022-08-24T08:02:11.769Z,5.97
2022-08-24T08:04:52.743Z,5.95
2022-08-24T08:07:32.708Z,7.40
2022-08-24T08:10:14.776Z,8.07
2022-08-24T08:12:54.674Z,7.60
2022-08-24T08:15:35.863Z,6.78
2022-08-24T08:18:15.938Z,7.35
2022-08-24T08:20:56.749Z,6.47
2022-08-24T08:23:55.699Z,6.70
2022-08-24T08:26:43.697Z,6.90
2022-08-24T08:29:31.715Z,5.85
2022-08-24T08:32:06.757Z,5.82
2022-08-24T08:34:55.998Z,5.70
2022-08-24T08:37:38.710Z,5.07
2022-08-24T08:41:04.721Z,5.63
2022-08-24T08:44:08.709Z,5.57
2022-08-24T08:47:03.782Z,5.68
2022-08-24T08:50:41.722Z,5.72
2022-08-24T08:54:03.705Z,5.22
2022-08-24T08:57:29.482Z,5.10
2022-08-24T09:00:38.734Z,5.95
2022-08-24T09:03:32.420Z,4.97
2022-08-24T09:06:18.790Z,5.57
2022-08-24T09:08:54.218Z,6.43
2022-08-24T09:12:01.698Z,5.15
2022-08-24T09:15:16.812Z,5.78
2022-08-24T09:18:40.720Z,6.13
2022-08-24T09:21:42.813Z,6.05
2022-08-24T09:25:01.689Z,6.38
2022-08-24T09:28:02.788Z,7.18
2022-08-24T09:31:05.815Z,6.25
2022-08-24T09:34:01.742Z,6.20
2022-08-24T09:37:30.729Z,6.55
2022-08-24T09:40:42.728Z,5.90
2022-08-24T09:43:50.101Z,5.72
2022-08-24T09:46:49.742Z,5.97
2022-08-24T09:49:51.832Z,6.55
2022-08-24T09:52:56.740Z,5.47
2022-08-24T09:55:37.804Z,5.47
2022-08-24T09:58:41.735Z,5.47
2022-08-24T10:01:27.893Z,5.68
2022-08-24T10:04:14.705Z,5.47
2022-08-24T10:07:12.804Z,5.60
2022-08-24T10:10:14.731Z,5.32
2022-08-24T10:13:04.292Z,5.32
2022-08-24T10:16:09.780Z,4.93
2022-08-24T10:19:20.213Z,5.28
2022-08-24T10:22:23.752Z,5.32
2022-08-24T10:25:07.941Z,4.78
2022-08-24T10:28:13.769Z,5.57
2022-08-24T10:31:18.807Z,5.93
2022-08-24T10:34:48.792Z,4.72
2022-08-24T10:38:21.756Z,5.38
2022-08-24T10:41:30.844Z,5.13
2022-08-24T10:44:47.748Z,5.60
2022-08-24T10:47:35.014Z,4.93
2022-08-24T10:50:39.760Z,4.30
2022-08-24T10:53:28.878Z,4.57
2022-08-24T10:56:27.790Z,5.07
2022-08-24T10:59:28.816Z,4.63
2022-08-24T11:02:39.794Z,4.47
2022-08-24T11:05:43.821Z,4.28
2022-08-24T11:08:29.779Z,4.65
2022-08-24T11:11:15.929Z,4.32
2022-08-24T11:14:09.596Z,4.50
2022-08-24T11:16:59.799Z,5.05
2022-08-24T11:19:41.757Z,5.20
2022-08-24T11:22:41.900Z,4.38
2022-08-24T11:25:28.773Z,4.18
2022-08-24T11:28:39.776Z,5.35
2022-08-24T11:31:22.420Z,4.50
2022-08-24T11:34:19.783Z,4.57
2022-08-24T11:36:59.775Z,4.03
2022-08-24T11:39:42.898Z,4.90
2022-08-24T11:42:34.803Z,4.97
2022-08-24T11:45:40.237Z,5.65
2022-08-24T11:48:45.954Z,5.55
2022-08-24T11:51:38.852Z,5.13
2022-08-24T11:54:49.790Z,4.63
2022-08-24T11:57:48.314Z,5.30
2022-08-24T12:00:56.787Z,5.20
2022-08-24T12:03:55.815Z,4.78
2022-08-24T12:06:56.061Z,4.55
2022-08-24T12:10:32.773Z,4.65
2022-08-24T12:13:42.809Z,4.72
2022-08-24T12:17:01.806Z,4.80
2022-08-24T12:19:49.784Z,4.70
2022-08-24T12:22:37.800Z,4.35
2022-08-24T12:25:44.815Z,4.30
2022-08-24T12:28:41.152Z,5.05
2022-08-24T12:31:55.899Z,4.40
2022-08-24T12:35:03.937Z,4.30
2022-08-24T12:37:59.914Z,4.45
2022-08-24T12:40:48.094Z,5.20
2022-08-24T12:43:52.814Z,4.05
2022-08-24T12:46:27.227Z,4.20
2022-08-24T12:49:20.817Z,3.72
2022-08-24T12:51:54.366Z,3.42
2022-08-24T12:55:20.085Z,3.85
2022-08-24T13:01:12.904Z,4.15
2022-08-24T13:03:56.841Z,4.30
2022-08-24T13:06:59.831Z,3.47
2022-08-24T13:10:12.822Z,3.17
2022-08-24T13:12:52.083Z,3.80
2022-08-24T13:15:45.877Z,3.35
2022-08-24T13:18:19.349Z,3.40
2022-08-24T13:21:09.852Z,3.95
2022-08-24T13:23:43.498Z,3.88
2022-08-24T13:26:38.842Z,3.55
2022-08-24T13:29:16.357Z,3.90
2022-08-24T13:32:06.823Z,3.50
2022-08-24T13:34:44.728Z,3.78
2022-08-24T13:37:41.835Z,4.55
2022-08-24T13:40:28.872Z,3.47
2022-08-24T13:43:50.862Z,3.67
2022-08-24T13:47:03.866Z,3.60
2022-08-24T13:50:03.379Z,3.05
2022-08-24T13:52:47.864Z,3.97
2022-08-24T13:55:53.931Z,3.70
2022-08-24T13:59:02.850Z,3.78
2022-08-24T14:02:13.870Z,3.10
2022-08-24T14:05:30.884Z,2.58
2022-08-24T14:08:38.864Z,4.18
2022-08-24T14:11:42.912Z,3.80
2022-08-24T14:14:57.857Z,2.50
2022-08-24T14:17:53.927Z,3.08
2022-08-24T14:21:18.140Z,2.72
2022-08-24T14:23:59.166Z,2.65
2022-08-24T14:26:50.946Z,3.15
2022-08-24T14:29:26.957Z,2.72
2022-08-24T14:32:13.865Z,3.67
2022-08-24T14:35:30.126Z,2.65
2022-08-24T14:38:31.864Z,3.05
2022-08-24T14:41:17.134Z,3.00
2022-08-24T14:44:37.881Z,3.08
2022-08-24T14:47:38.299Z,3.08
2022-08-24T14:50:39.856Z,2.88
2022-08-24T14:53:37.370Z,3.28
2022-08-24T14:57:08.884Z,3.10
2022-08-24T15:00:22.875Z,3.08
2022-08-24T15:03:45.865Z,3.53
2022-08-24T15:06:51.872Z,3.30
2022-08-24T15:09:37.134Z,3.20
2022-08-24T15:12:42.896Z,2.70
2022-08-24T15:15:51.985Z,2.90
2022-08-24T15:18:46.878Z,3.65
2022-08-24T15:21:56.368Z,3.08
2022-08-24T15:25:14.904Z,3.20
2022-08-24T15:28:13.872Z,3.10
2022-08-24T15:31:01.665Z,3.38
2022-08-24T15:34:15.910Z,3.38
2022-08-24T15:37:14.899Z,3.45
2022-08-24T15:40:02.031Z,3.55
2022-08-24T15:42:39.030Z,4.30
2022-08-24T15:45:27.918Z,3.85
2022-08-24T15:48:05.258Z,3.60
2022-08-24T15:50:54.921Z,3.80
2022-08-24T15:53:35.004Z,3.58
2022-08-24T15:56:27.918Z,4.00
2022-08-24T15:59:01.002Z,3.40
2022-08-24T16:02:12.971Z,4.20
2022-08-24T16:05:18.908Z,3.55
2022-08-24T16:08:08.077Z,3.78
2022-08-24T16:10:58.914Z,4.55
2022-08-24T16:13:40.009Z,4.00
2022-08-24T16:16:22.022Z,4.05
2022-08-24T16:19:08.328Z,3.92
2022-08-24T16:22:11.956Z,4.47
2022-08-24T16:24:59.941Z,4.45
2022-08-24T16:27:56.899Z,4.03
2022-08-24T16:30:55.961Z,3.80
2022-08-24T16:33:43.162Z,4.15
2022-08-24T16:36:26.004Z,4.70
2022-08-24T16:39:06.940Z,4.75
2022-08-24T16:41:50.090Z,3.78
2022-08-24T16:44:29.926Z,13.65
2022-08-24T16:47:11.320Z,11.18
2022-08-24T16:49:51.936Z,26.42
2022-08-24T16:52:33.035Z,10.32
2022-08-24T16:55:14.798Z,13.65
2022-08-24T16:58:04.014Z,13.75
2022-08-24T17:00:44.021Z,7.22
2022-08-24T17:03:25.062Z,21.38
2022-08-24T17:06:04.925Z,5.90
2022-08-24T17:08:53.932Z,8.70
2022-08-24T17:11:27.741Z,11.95
2022-08-24T17:14:17.974Z,7.55
2022-08-24T17:16:52.103Z,14.20
2022-08-24T17:19:43.949Z,17.55
2022-08-24T17:22:18.553Z,16.73
2022-08-24T17:25:05.939Z,20.88
2022-08-24T17:27:46.958Z,20.30
2022-08-24T17:30:30.088Z,21.88
2022-08-24T17:33:17.946Z,13.70
2022-08-24T17:35:52.063Z,20.08
2022-08-24T17:38:42.944Z,23.70
2022-08-24T17:41:18.578Z,24.67
2022-08-24T17:44:07.953Z,25.08
2022-08-24T17:46:42.380Z,19.63
2022-08-24T17:49:28.964Z,13.52
2022-08-24T17:52:03.047Z,22.42
2022-08-24T17:54:49.981Z,13.55
2022-08-24T17:57:31.952Z,8.57
2022-08-24T18:00:19.969Z,8.23
2022-08-24T18:03:00.977Z,10.73
2022-08-24T18:05:47.958Z,11.27
2022-08-24T18:08:22.039Z,14.32
2022-08-24T18:11:08.974Z,17.05
2022-08-24T18:13:43.045Z,7.47
2022-08-24T18:16:34.027Z,6.75
2022-08-24T18:19:08.128Z,8.43
2022-08-24T18:21:54.978Z,7.22
2022-08-24T18:24:32.558Z,7.80
2022-08-24T18:27:28.346Z,6.72
2022-08-24T18:30:12.036Z,6.20
2022-08-24T18:32:53.987Z,6.15
2022-08-24T18:35:35.061Z,6.10
2022-08-24T18:38:14.961Z,6.47
2022-08-24T18:40:56.050Z,5.65
2022-08-24T18:43:35.963Z,6.18
2022-08-24T18:46:17.139Z,6.82
2022-08-24T18:48:57.003Z,6.57
2022-08-24T18:51:40.393Z,7.22
2022-08-24T18:54:22.975Z,7.97
2022-08-24T18:57:04.272Z,6.35
2022-08-24T18:59:45.003Z,6.40
2022-08-24T19:02:38.004Z,6.13
2022-08-24T19:05:21.021Z,6.45
2022-08-24T19:08:02.055Z,6.00
2022-08-24T19:10:43.983Z,6.88
2022-08-24T19:13:25.086Z,6.78
2022-08-24T19:16:05.076Z,6.78
2022-08-24T19:18:49.842Z,6.20
2022-08-24T19:21:31.007Z,6.40
2022-08-24T19:24:19.013Z,6.25
2022-08-24T19:26:53.290Z,5.50
2022-08-24T19:29:56.519Z,6.97
2022-08-24T19:32:31.867Z,6.38
2022-08-24T19:35:26.005Z,6.38
2022-08-24T19:38:06.019Z,6.63
2022-08-24T19:40:48.004Z,6.25
2022-08-24T19:43:28.026Z,6.45
2022-08-24T19:46:17.069Z,6.38
2022-08-24T19:48:50.949Z,7.00
2022-08-24T19:51:39.008Z,7.13
2022-08-24T19:54:13.074Z,6.15
2022-08-24T19:57:01.036Z,5.57
2022-08-24T19:59:38.932Z,5.07
2022-08-24T20:02:27.022Z,5.25
2022-08-24T20:05:08.020Z,5.60
2022-08-24T20:07:51.107Z,5.78
2022-08-24T20:10:32.042Z,6.20
2022-08-24T20:13:13.480Z,6.43
2022-08-24T20:15:53.067Z,6.40
2022-08-24T20:18:47.047Z,6.18
2022-08-24T20:21:29.919Z,6.10
2022-08-24T20:24:18.083Z,7.13
2022-08-24T20:26:51.616Z,6.68
2022-08-24T20:29:39.055Z,6.68
2022-08-24T20:32:12.589Z,6.63
2022-08-24T20:35:00.025Z,6.93
2022-08-24T20:37:41.081Z,6.38
2022-08-24T20:40:31.053Z,7.00
2022-08-24T20:43:25.063Z,7.53
2022-08-24T20:46:13.095Z,7.55
2022-08-24T20:48:55.326Z,8.48
2022-08-24T20:51:43.068Z,7.88
2022-08-24T20:54:18.237Z,8.55
2022-08-24T20:57:05.059Z,7.90
2022-08-24T20:59:46.064Z,8.60
2022-08-24T21:02:40.075Z,8.23
2022-08-24T21:05:35.021Z,8.35
2022-08-24T21:08:22.068Z,8.82
2022-08-24T21:10:56.257Z,9.40
2022-08-24T21:13:43.045Z,8.80
2022-08-24T21:16:26.139Z,9.43
2022-08-24T21:19:24.056Z,8.25
2022-08-24T21:22:11.074Z,9.15
2022-08-24T21:24:54.094Z,8.90
2022-08-24T21:27:51.065Z,8.20
2022-08-24T21:30:38.067Z,7.47
2022-08-24T21:33:30.031Z,8.10
2022-08-24T21:36:18.086Z,7.55
2022-08-24T21:38:53.470Z,8.45
2022-08-24T21:41:40.082Z,8.48
2022-08-24T21:44:21.080Z,8.98
2022-08-24T21:47:09.081Z,8.65
2022-08-24T21:49:50.101Z,9.45
2022-08-24T21:52:31.079Z,8.57
2022-08-24T21:55:14.962Z,9.30
2022-08-24T21:57:57.083Z,9.73
2022-08-24T22:00:38.076Z,9.02
2022-08-24T22:03:19.104Z,11.00
2022-08-24T22:06:07.818Z,9.07
2022-08-24T22:08:57.114Z,9.90
2022-08-24T22:11:38.066Z,9.25
2022-08-24T22:14:19.179Z,9.40
2022-08-24T22:17:00.084Z,9.27
2022-08-24T22:19:41.155Z,9.75
2022-08-24T22:22:21.075Z,9.32
2022-08-24T22:25:02.138Z,8.82
2022-08-24T22:27:42.079Z,8.93
2022-08-24T22:30:25.314Z,10.85
2022-08-24T22:33:05.395Z,10.07
2022-08-24T22:35:47.278Z,11.23
2022-08-24T22:38:28.096Z,9.85
2022-08-24T22:41:08.192Z,10.02
2022-08-24T22:44:15.086Z,11.18
2022-08-24T22:46:49.303Z,10.10
2022-08-24T22:49:42.103Z,9.43
2022-08-24T22:52:23.099Z,10.38
2022-08-24T22:55:18.081Z,10.20
2022-08-24T22:58:06.089Z,9.35
2022-08-24T23:00:40.563Z,10.38
2022-08-24T23:03:27.075Z,9.93
2022-08-24T23:06:07.124Z,11.07
2022-08-24T23:09:01.099Z,9.27
2022-08-24T23:11:49.090Z,8.57
2022-08-24T23:14:23.184Z,9.32
2022-08-24T23:17:11.105Z,10.05
2022-08-24T23:20:00.742Z,9.27
2022-08-24T23:22:49.112Z,9.52
2022-08-24T23:25:23.194Z,9.05
2022-08-24T23:28:11.115Z,9.57
2022-08-24T23:30:52.190Z,8.90
2022-08-24T23:33:39.514Z,9.23
2022-08-24T23:36:18.260Z,9.63
2022-08-24T23:39:06.140Z,10.63
2022-08-24T23:41:50.842Z,9.95
2022-08-24T23:44:35.103Z,9.25
2022-08-24T23:47:16.205Z,9.15
2022-08-24T23:49:57.119Z,9.93
2022-08-24T23:52:39.258Z,10.02
2022-08-24T23:55:22.153Z,9.70
2022-08-24T23:58:04.055Z,8.82
